Time;durP1;ratioP1;P1;durP2;ratioP2;P2;SDS_P1;SDS_P2;PMS_P1;PMS_P2;Temp;Humidity;BMP_temperature;BMP_pressure;BME280_temperature;BME280_humidity;BME280_pressure;Samples;Min_cycle;Max_cycle;Signal;HPM_P1;HPM_P2
2020/12/13 00:00:37;;;;;;;63.60;33.55;;;10.70;99.90;;;;;;2122285;27;20448;-79
2020/12/13 00:01:38;;;;;;;62.55;33.97;;;10.70;99.90;;;;;;2121926;27;20398;-77
2020/12/13 00:02:38;;;;;;;61.85;33.53;;;10.70;99.90;;;;;;2122293;27;20098;-78
2020/12/13 00:03:39;;;;;;;58.38;33.78;;;10.70;99.90;;;;;;2121225;27;20080;-78
2020/12/13 00:04:40;;;;;;;64.32;34.53;;;10.70;99.90;;;;;;2122005;27;20019;-78
2020/12/13 00:05:41;;;;;;;61.40;32.72;;;10.70;99.90;;;;;;2121857;27;20325;-77
2020/12/13 00:06:41;;;;;;;67.38;35.83;;;10.70;99.90;;;;;;2121865;27;20421;-76
2020/12/13 00:07:42;;;;;;;60.33;33.30;;;10.70;99.90;;;;;;2122074;27;20054;-76
2020/12/13 00:08:43;;;;;;;57.58;33.53;;;10.70;99.90;;;;;;2121901;27;20027;-76
2020/12/13 00:09:43;;;;;;;47.42;31.73;;;10.70;99.90;;;;;;2122120;27;20027;-77
2020/12/13 00:10:44;;;;;;;54.13;32.08;;;10.70;99.90;;;;;;2122187;27;20057;-76
2020/12/13 00:11:44;;;;;;;59.63;33.05;;;10.70;99.90;;;;;;2121521;27;20025;-76
2020/12/13 00:12:45;;;;;;;52.72;30.23;;;10.70;99.90;;;;;;2122176;27;20152;-77
2020/12/13 00:13:45;;;;;;;56.72;33.88;;;10.70;99.90;;;;;;2122426;27;20030;-79
2020/12/13 00:14:46;;;;;;;50.25;31.60;;;10.70;99.90;;;;;;2122056;27;20094;-78
2020/12/13 00:15:47;;;;;;;57.55;32.70;;;10.70;99.90;;;;;;2122131;27;20432;-77
2020/12/13 00:16:52;;;;;;;52.17;33.10;;;10.70;99.90;;;;;;2122113;27;20015;-77
2020/12/13 00:17:52;;;;;;;56.55;31.70;;;10.70;99.90;;;;;;2122607;27;20026;-78
2020/12/13 00:18:53;;;;;;;57.58;31.85;;;10.70;99.90;;;;;;2122138;27;20051;-78
2020/12/13 00:19:53;;;;;;;51.80;32.45;;;10.70;99.90;;;;;;2112897;28;20059;-76
2020/12/13 00:20:54;;;;;;;48.88;30.83;;;10.70;99.90;;;;;;2113284;28;20094;-78
2020/12/13 00:21:56;;;;;;;48.58;31.52;;;10.70;99.90;;;;;;2121729;27;20102;-77
2020/12/13 00:22:57;;;;;;;55.20;32.13;;;10.70;99.90;;;;;;2112891;28;20020;-76
2020/12/13 00:23:57;;;;;;;56.58;32.65;;;10.70;99.90;;;;;;2113119;28;20028;-79
2020/12/13 00:24:58;;;;;;;48.20;30.00;;;10.70;99.90;;;;;;2112896;28;20325;-78
2020/12/13 00:25:58;;;;;;;49.50;31.40;;;10.70;99.90;;;;;;2113276;28;20102;-78
2020/12/13 00:26:59;;;;;;;52.20;31.67;;;10.70;99.90;;;;;;2121993;27;20036;-79
2020/12/13 00:28:00;;;;;;;51.83;30.65;;;10.70;99.90;;;;;;2122224;27;20023;-79
2020/12/13 00:29:00;;;;;;;57.03;32.67;;;10.70;99.90;;;;;;2121971;27;20046;-79
2020/12/13 00:30:01;;;;;;;54.05;32.13;;;10.70;99.90;;;;;;2122446;27;20027;-79
2020/12/13 00:31:03;;;;;;;59.28;33.85;;;10.70;99.90;;;;;;2121972;27;20030;-78
2020/12/13 00:32:03;;;;;;;55.80;33.35;;;10.70;99.90;;;;;;2121702;27;20096;-79
2020/12/13 00:33:04;;;;;;;51.20;32.72;;;10.70;99.90;;;;;;2121980;27;20421;-78
2020/12/13 00:34:04;;;;;;;54.63;33.47;;;10.70;99.90;;;;;;2112970;28;20090;-76
2020/12/13 00:35:05;;;;;;;55.80;32.90;;;10.70;99.90;;;;;;2112765;28;20027;-76
2020/12/13 00:36:06;;;;;;;56.15;33.30;;;10.70;99.90;;;;;;2121586;27;20065;-77
2020/12/13 00:37:06;;;;;;;54.70;32.88;;;10.70;99.90;;;;;;2112823;28;20020;-79
2020/12/13 00:38:07;;;;;;;61.63;33.53;;;10.70;99.90;;;;;;2112927;28;20030;-78
2020/12/13 00:39:08;;;;;;;52.00;31.77;;;10.70;99.90;;;;;;2112627;28;20023;-78
2020/12/13 00:40:08;;;;;;;59.22;33.42;;;10.70;99.90;;;;;;2112711;28;20074;-79
2020/12/13 00:41:10;;;;;;;56.33;33.80;;;10.70;99.90;;;;;;2121847;27;20019;-78
2020/12/13 00:42:10;;;;;;;56.03;32.53;;;10.70;99.90;;;;;;2121673;27;20552;-77
2020/12/13 00:43:11;;;;;;;60.95;34.90;;;10.70;99.90;;;;;;2121938;27;20072;-77
2020/12/13 00:44:11;;;;;;;59.05;33.47;;;10.70;99.90;;;;;;2121964;27;20019;-76
2020/12/13 00:45:12;;;;;;;52.83;32.95;;;10.70;99.90;;;;;;2121601;27;20068;-77
2020/12/13 00:46:12;;;;;;;52.88;32.55;;;10.60;99.90;;;;;;2121949;27;20480;-79
2020/12/13 00:47:13;;;;;;;56.60;32.95;;;10.70;99.90;;;;;;2121659;27;20050;-77
2020/12/13 00:48:14;;;;;;;58.85;33.20;;;10.70;99.90;;;;;;2121818;27;20112;-79
2020/12/13 00:49:15;;;;;;;54.95;32.25;;;10.70;99.90;;;;;;2121829;27;20087;-76
2020/12/13 00:50:15;;;;;;;55.88;32.75;;;10.70;99.90;;;;;;2122015;27;20080;-78
2020/12/13 00:51:25;;;;;;;60.92;34.55;;;10.70;99.90;;;;;;2121343;27;20479;-79
2020/12/13 00:52:25;;;;;;;55.75;33.60;;;10.70;99.90;;;;;;2121912;27;20029;-78
2020/12/13 00:53:26;;;;;;;49.78;31.73;;;10.70;99.90;;;;;;2121578;27;20062;-79
2020/12/13 00:54:26;;;;;;;53.85;31.73;;;10.70;99.90;;;;;;2112758;28;20106;-78
2020/12/13 00:55:27;;;;;;;55.60;32.00;;;10.70;99.90;;;;;;2112730;28;20019;-77
2020/12/13 00:56:27;;;;;;;53.75;33.20;;;10.70;99.90;;;;;;2121878;27;20023;-76
2020/12/13 00:57:28;;;;;;;54.17;34.00;;;10.70;99.90;;;;;;2121573;27;20070;-77
2020/12/13 00:58:29;;;;;;;55.83;32.85;;;10.70;99.90;;;;;;2122095;27;20030;-78
2020/12/13 00:59:29;;;;;;;57.42;33.40;;;10.70;99.90;;;;;;2112612;28;20110;-77
2020/12/13 01:00:30;;;;;;;55.63;33.42;;;10.70;99.90;;;;;;2112758;28;20051;-77
2020/12/13 01:01:30;;;;;;;56.88;33.53;;;10.70;99.90;;;;;;2121253;27;20043;-78
2020/12/13 01:02:31;;;;;;;53.30;31.13;;;10.70;99.90;;;;;;2112479;28;20561;-77
2020/12/13 01:03:31;;;;;;;57.47;32.58;;;10.70;99.90;;;;;;2104086;28;20677;-77
2020/12/13 01:04:34;;;;;;;51.22;32.10;;;10.70;99.90;;;;;;2112599;28;20582;-76
2020/12/13 01:05:35;;;;;;;54.22;33.67;;;10.70;99.90;;;;;;2121931;27;20098;-78
2020/12/13 01:06:35;;;;;;;58.58;32.05;;;10.70;99.90;;;;;;2121628;27;20396;-78
2020/12/13 01:07:36;;;;;;;52.58;33.47;;;10.70;99.90;;;;;;2121769;27;20023;-77
2020/12/13 01:08:36;;;;;;;56.38;31.85;;;10.70;99.90;;;;;;2112459;28;20120;-79
2020/12/13 01:09:37;;;;;;;53.35;32.08;;;10.70;99.90;;;;;;2112655;28;20024;-77
2020/12/13 01:10:37;;;;;;;49.38;31.83;;;10.70;99.90;;;;;;2121607;27;20214;-75
2020/12/13 01:11:39;;;;;;;51.45;32.50;;;10.70;99.90;;;;;;2121658;27;20106;-78
2020/12/13 01:12:43;;;;;;;52.38;32.17;;;10.70;99.90;;;;;;2122124;27;20098;-77
2020/12/13 01:13:43;;;;;;;53.70;31.50;;;10.70;99.90;;;;;;2122259;27;20023;-78
2020/12/13 01:14:44;;;;;;;56.55;33.38;;;10.70;99.90;;;;;;2122412;27;20256;-78
2020/12/13 01:15:44;;;;;;;52.95;32.55;;;10.70;99.90;;;;;;2122736;27;20019;-78
2020/12/13 01:16:45;;;;;;;57.97;34.38;;;10.70;99.90;;;;;;2122315;27;20360;-78
2020/12/13 01:17:47;;;;;;;56.22;33.08;;;10.70;99.90;;;;;;2122489;27;20015;-77
2020/12/13 01:18:48;;;;;;;57.08;32.42;;;10.70;99.90;;;;;;2122430;27;20011;-78
2020/12/13 01:19:48;;;;;;;55.22;32.35;;;10.70;99.90;;;;;;2113115;28;20027;-77
2020/12/13 01:20:49;;;;;;;48.40;31.65;;;10.70;99.90;;;;;;2113356;28;20030;-74
2020/12/13 01:21:49;;;;;;;60.03;34.33;;;10.80;99.90;;;;;;2122148;27;20471;-79
2020/12/13 01:22:50;;;;;;;57.03;33.30;;;10.70;99.90;;;;;;2113056;28;20050;-76
2020/12/13 01:23:51;;;;;;;58.05;33.78;;;10.80;99.90;;;;;;2113488;28;20035;-76
2020/12/13 01:24:52;;;;;;;57.97;34.30;;;10.80;99.90;;;;;;2122308;27;20027;-78
2020/12/13 01:25:53;;;;;;;52.60;32.45;;;10.80;99.90;;;;;;2122572;27;20104;-78
2020/12/13 01:26:53;;;;;;;54.90;32.95;;;10.80;99.90;;;;;;2122375;27;20178;-76
2020/12/13 01:27:54;;;;;;;54.55;32.97;;;10.80;99.90;;;;;;2120985;27;20067;-78
2020/12/13 01:28:54;;;;;;;53.72;33.20;;;10.80;99.90;;;;;;2122102;27;20108;-76
2020/12/13 01:29:55;;;;;;;52.25;31.50;;;10.80;99.90;;;;;;2113151;28;20023;-77
2020/12/13 01:30:56;;;;;;;53.47;32.25;;;10.80;99.90;;;;;;2113106;28;20027;-80
2020/12/13 01:31:56;;;;;;;50.58;34.05;;;10.80;99.90;;;;;;2121916;27;20322;-77
2020/12/13 01:32:57;;;;;;;58.38;33.83;;;10.80;99.90;;;;;;2122176;27;20019;-77
2020/12/13 01:33:57;;;;;;;51.20;33.10;;;10.80;99.90;;;;;;2113129;28;20361;-76
2020/12/13 01:34:58;;;;;;;49.13;31.52;;;10.80;99.90;;;;;;2113050;28;20599;-75
2020/12/13 01:35:59;;;;;;;56.03;34.40;;;10.80;99.90;;;;;;2112971;28;20031;-77
2020/12/13 01:37:01;;;;;;;53.03;33.25;;;10.80;99.90;;;;;;2113019;27;20467;-77
2020/12/13 01:38:01;;;;;;;52.58;33.15;;;10.80;99.90;;;;;;2122297;27;20031;-77
2020/12/13 01:39:03;;;;;;;53.85;33.08;;;10.80;99.90;;;;;;2112941;28;20058;-77
2020/12/13 01:40:06;;;;;;;57.33;33.80;;;10.80;99.90;;;;;;2113146;28;20064;-78
2020/12/13 01:41:07;;;;;;;56.78;34.85;;;10.80;99.90;;;;;;2122271;27;20050;-75
2020/12/13 01:42:07;;;;;;;55.63;35.58;;;10.80;99.90;;;;;;2121639;27;20372;-76
2020/12/13 01:43:08;;;;;;;55.03;35.38;;;10.80;99.90;;;;;;2122133;27;20030;-77
2020/12/13 01:44:09;;;;;;;51.00;33.83;;;10.80;99.90;;;;;;2122293;27;20532;-76
2020/12/13 01:45:12;;;;;;;52.08;33.17;;;10.80;99.90;;;;;;2122248;27;20352;-79
2020/12/13 01:46:13;;;;;;;54.17;35.53;;;10.80;99.90;;;;;;2122079;27;20080;-76
2020/12/13 01:47:13;;;;;;;56.83;35.05;;;10.80;99.90;;;;;;2122125;27;20051;-77
2020/12/13 01:48:14;;;;;;;57.95;35.20;;;10.80;99.90;;;;;;2121952;27;20075;-77
2020/12/13 01:49:15;;;;;;;58.47;34.53;;;10.80;99.90;;;;;;2112906;28;20020;-76
2020/12/13 01:50:42;;;;;;;59.25;35.53;;;10.80;99.90;;;;;;2113122;28;20749;-77
2020/12/13 01:51:54;;;;;;;56.55;34.22;;;10.80;99.90;;;;;;2120653;27;20062;-77
2020/12/13 01:53:13;;;;;;;52.67;33.88;;;10.80;99.90;;;;;;2112757;28;20064;-76
2020/12/13 01:54:15;;;;;;;56.35;32.95;;;10.70;99.90;;;;;;2115657;27;20034;-76
2020/12/13 01:55:19;;;;;;;52.22;32.92;;;10.80;99.90;;;;;;2122218;27;20142;-77
2020/12/13 01:56:19;;;;;;;58.28;33.50;;;10.80;99.90;;;;;;2112952;28;20030;-75
2020/12/13 01:57:22;;;;;;;54.65;34.85;;;10.70;99.90;;;;;;2112956;28;20066;-78
2020/12/13 01:58:28;;;;;;;53.90;33.55;;;10.80;99.90;;;;;;2122122;27;20019;-78
2020/12/13 01:59:30;;;;;;;61.03;35.88;;;10.80;99.90;;;;;;2121995;27;20026;-77
2020/12/13 02:00:32;;;;;;;59.83;34.53;;;10.70;99.90;;;;;;2122033;27;20011;-77
2020/12/13 02:01:37;;;;;;;57.83;35.38;;;10.80;99.90;;;;;;2112300;28;20022;-77
2020/12/13 02:02:44;;;;;;;57.95;35.70;;;10.80;99.90;;;;;;2112929;28;20102;-76
2020/12/13 02:03:58;;;;;;;57.38;34.22;;;10.70;99.90;;;;;;2114151;28;20419;-77
2020/12/13 02:05:02;;;;;;;53.58;33.58;;;10.70;99.90;;;;;;2104271;28;20028;-78
2020/12/13 02:06:14;;;;;;;55.53;33.75;;;10.70;99.90;;;;;;2105608;28;20016;-76
2020/12/13 02:07:16;;;;;;;52.83;34.15;;;10.70;99.90;;;;;;2122023;27;20019;-79
2020/12/13 02:08:21;;;;;;;55.85;34.25;;;10.70;99.90;;;;;;2122414;27;20110;-78
2020/12/13 02:09:23;;;;;;;53.58;33.45;;;10.70;99.90;;;;;;2113133;28;20395;-75
2020/12/13 02:10:24;;;;;;;58.75;35.53;;;10.70;99.90;;;;;;2113061;28;20110;-76
2020/12/13 02:11:24;;;;;;;52.22;32.55;;;10.80;99.90;;;;;;2121646;27;20135;-77
2020/12/13 02:12:25;;;;;;;59.63;34.45;;;10.70;99.90;;;;;;2122296;27;20463;-77
2020/12/13 02:13:26;;;;;;;52.40;34.08;;;10.70;99.90;;;;;;2121853;27;20024;-78
2020/12/13 02:14:26;;;;;;;58.00;33.83;;;10.80;99.90;;;;;;2121984;28;20035;-80
2020/12/13 02:15:27;;;;;;;54.65;32.67;;;10.80;99.90;;;;;;2112853;28;20026;-77
2020/12/13 02:16:28;;;;;;;52.33;33.40;;;10.80;99.90;;;;;;2112953;28;20047;-79
2020/12/13 02:17:29;;;;;;;52.35;34.30;;;10.80;99.90;;;;;;2112919;28;20816;-80
2020/12/13 02:18:29;;;;;;;55.15;34.35;;;10.80;99.90;;;;;;2113302;28;20055;-78
2020/12/13 02:19:31;;;;;;;52.58;34.17;;;10.80;99.90;;;;;;2122014;28;20023;-77
2020/12/13 02:20:31;;;;;;;53.35;34.05;;;10.80;99.90;;;;;;2122394;28;20019;-78
2020/12/13 02:21:32;;;;;;;54.33;33.78;;;10.80;99.90;;;;;;2112403;28;20059;-78
2020/12/13 02:22:33;;;;;;;58.05;34.38;;;10.80;99.90;;;;;;2113154;28;20015;-77
2020/12/13 02:23:33;;;;;;;53.60;31.75;;;10.80;99.90;;;;;;2112788;28;20399;-78
2020/12/13 02:24:34;;;;;;;53.78;33.10;;;10.80;99.90;;;;;;2113091;28;20016;-78
2020/12/13 02:25:35;;;;;;;56.78;34.85;;;10.80;99.90;;;;;;2122047;28;20481;-78
2020/12/13 02:26:41;;;;;;;56.53;34.58;;;10.80;99.90;;;;;;2121913;28;20055;-80
2020/12/13 02:27:41;;;;;;;55.90;33.60;;;10.80;99.90;;;;;;2121832;28;20024;-77
2020/12/13 02:28:42;;;;;;;53.05;32.92;;;10.80;99.90;;;;;;2113069;28;20027;-79
2020/12/13 02:29:43;;;;;;;47.65;31.95;;;10.80;99.90;;;;;;2112635;28;20379;-80
2020/12/13 02:30:44;;;;;;;53.28;33.50;;;10.80;99.90;;;;;;2113020;28;20058;-77
2020/12/13 02:31:45;;;;;;;54.85;33.85;;;10.80;99.90;;;;;;2121580;28;20030;-77
2020/12/13 02:32:45;;;;;;;53.75;33.13;;;10.80;99.90;;;;;;2122081;28;20092;-77
2020/12/13 02:33:46;;;;;;;54.22;33.25;;;10.80;99.90;;;;;;2112517;28;20442;-79
2020/12/13 02:34:46;;;;;;;51.60;32.58;;;10.80;99.90;;;;;;2113086;28;20042;-78
2020/12/13 02:35:47;;;;;;;56.92;34.88;;;10.80;99.90;;;;;;2121891;28;20143;-78
2020/12/13 02:36:48;;;;;;;51.65;33.17;;;10.80;99.90;;;;;;2122060;28;20031;-79
2020/12/13 02:37:49;;;;;;;58.53;34.80;;;10.80;99.90;;;;;;2112761;28;20028;-79
2020/12/13 02:38:49;;;;;;;53.63;33.45;;;10.80;99.90;;;;;;2112843;28;20144;-79
2020/12/13 02:39:50;;;;;;;56.08;33.72;;;10.80;99.90;;;;;;2112481;28;20051;-76
2020/12/13 02:40:50;;;;;;;50.45;33.55;;;10.70;99.90;;;;;;2104655;28;20020;-80
2020/12/13 02:41:59;;;;;;;57.17;36.72;;;10.80;99.90;;;;;;2112165;28;20023;-77
2020/12/13 02:43:00;;;;;;;54.42;33.53;;;10.80;99.90;;;;;;2121887;28;20438;-77
2020/12/13 02:44:00;;;;;;;55.17;33.30;;;10.70;99.90;;;;;;2121814;28;20039;-78
2020/12/13 02:45:01;;;;;;;56.50;34.30;;;10.70;99.90;;;;;;2121831;28;20136;-78
2020/12/13 02:46:02;;;;;;;54.75;33.72;;;10.70;99.90;;;;;;2121364;28;20054;-78
2020/12/13 02:47:02;;;;;;;52.28;33.03;;;10.70;99.90;;;;;;2121630;28;20034;-79
2020/12/13 02:48:03;;;;;;;52.80;33.58;;;10.70;99.90;;;;;;2122020;28;20402;-78
2020/12/13 02:49:04;;;;;;;56.40;34.85;;;10.70;99.90;;;;;;2121750;28;20356;-79
2020/12/13 02:50:05;;;;;;;52.70;33.97;;;10.70;99.90;;;;;;2121622;28;20387;-80
2020/12/13 02:51:08;;;;;;;59.20;34.38;;;10.70;99.90;;;;;;2122057;28;20098;-79
2020/12/13 02:52:09;;;;;;;55.88;34.03;;;10.80;99.90;;;;;;2119134;28;20031;-79
2020/12/13 02:53:10;;;;;;;54.85;34.33;;;10.70;99.90;;;;;;2121795;28;20057;-79
2020/12/13 02:54:11;;;;;;;53.58;33.65;;;10.70;99.90;;;;;;2122187;28;20102;-80
2020/12/13 02:55:11;;;;;;;56.92;34.45;;;10.70;99.90;;;;;;2121949;28;20023;-79
2020/12/13 02:56:12;;;;;;;53.75;33.72;;;10.80;99.90;;;;;;2112447;28;20093;-79
2020/12/13 02:57:12;;;;;;;54.80;34.53;;;10.70;99.90;;;;;;2104246;28;20024;-77
2020/12/13 02:58:13;;;;;;;52.63;32.95;;;10.80;99.90;;;;;;2112724;28;20111;-80
2020/12/13 02:59:13;;;;;;;51.70;33.25;;;10.80;99.90;;;;;;2121794;28;20015;-79
2020/12/13 03:00:14;;;;;;;53.70;34.67;;;10.80;99.90;;;;;;2112829;28;20565;-78
2020/12/13 03:01:15;;;;;;;57.83;35.10;;;10.80;99.90;;;;;;2112707;28;20020;-79
2020/12/13 03:02:15;;;;;;;59.85;34.65;;;10.80;99.90;;;;;;2121414;28;20034;-79
2020/12/13 03:03:16;;;;;;;57.22;32.90;;;10.80;99.90;;;;;;2113333;28;20103;-80
2020/12/13 03:04:16;;;;;;;56.35;33.65;;;10.80;99.90;;;;;;2114377;28;20109;-77
2020/12/13 03:05:17;;;;;;;52.53;33.80;;;10.80;99.90;;;;;;2114267;28;20049;-80
2020/12/13 03:06:17;;;;;;;55.53;34.55;;;10.80;99.90;;;;;;2105964;28;20035;-78
2020/12/13 03:07:18;;;;;;;56.05;33.85;;;10.80;99.90;;;;;;2114031;28;20507;-78
2020/12/13 03:08:19;;;;;;;54.72;34.78;;;10.80;99.90;;;;;;2123442;27;20030;-79
2020/12/13 03:09:19;;;;;;;60.58;34.58;;;10.80;99.90;;;;;;2114314;28;20150;-79
2020/12/13 03:10:20;;;;;;;48.13;32.25;;;10.80;99.90;;;;;;2105988;28;20047;-78
2020/12/13 03:11:21;;;;;;;52.65;33.63;;;10.80;99.90;;;;;;2114223;28;20058;-79
2020/12/13 03:12:21;;;;;;;54.67;33.13;;;10.80;99.90;;;;;;2122953;27;20471;-78
2020/12/13 03:13:22;;;;;;;58.67;33.80;;;10.80;99.90;;;;;;2123558;27;20103;-78
2020/12/13 03:14:22;;;;;;;51.97;32.45;;;10.80;99.90;;;;;;2114153;28;20035;-78
2020/12/13 03:15:23;;;;;;;58.20;35.20;;;10.80;99.90;;;;;;2114279;28;20102;-79
2020/12/13 03:16:23;;;;;;;58.53;34.92;;;10.80;99.90;;;;;;2123421;27;20468;-78
2020/12/13 03:17:24;;;;;;;56.28;35.33;;;10.80;99.90;;;;;;2113971;28;20113;-79
2020/12/13 03:18:24;;;;;;;56.50;35.80;;;10.80;99.90;;;;;;2114040;28;20057;-77
2020/12/13 03:19:25;;;;;;;62.40;35.45;;;10.80;99.90;;;;;;2123568;27;20330;-78
2020/12/13 03:20:26;;;;;;;57.25;35.15;;;10.80;99.90;;;;;;2123505;27;20019;-79
2020/12/13 03:21:26;;;;;;;61.38;35.65;;;10.80;99.90;;;;;;2122889;27;20024;-78
2020/12/13 03:22:27;;;;;;;55.08;34.75;;;10.80;99.90;;;;;;2123509;27;20094;-79
2020/12/13 03:23:27;;;;;;;54.83;35.17;;;10.80;99.90;;;;;;2123283;27;20383;-78
2020/12/13 03:24:28;;;;;;;59.25;34.40;;;10.80;99.90;;;;;;2123453;27;20162;-79
2020/12/13 03:25:28;;;;;;;61.00;35.55;;;10.80;99.90;;;;;;2123351;27;20072;-78
2020/12/13 03:26:29;;;;;;;57.22;36.13;;;10.80;99.90;;;;;;2123254;27;20055;-78
2020/12/13 03:27:30;;;;;;;54.15;34.85;;;10.80;99.90;;;;;;2122889;27;20028;-79
2020/12/13 03:28:30;;;;;;;58.45;35.13;;;10.80;99.90;;;;;;2123460;27;20020;-80
2020/12/13 03:29:31;;;;;;;56.15;33.75;;;10.80;99.90;;;;;;2123045;27;20486;-79
2020/12/13 03:30:32;;;;;;;57.38;34.72;;;10.80;99.90;;;;;;2123524;27;20027;-78
2020/12/13 03:31:32;;;;;;;58.30;35.33;;;10.80;99.90;;;;;;2122837;27;20428;-79
2020/12/13 03:32:35;;;;;;;57.55;34.85;;;10.80;99.90;;;;;;2123632;27;20023;-78
2020/12/13 03:33:36;;;;;;;59.30;36.95;;;10.80;99.90;;;;;;2123256;27;20026;-78
2020/12/13 03:34:37;;;;;;;54.85;35.10;;;10.80;99.90;;;;;;2123375;27;20102;-79
2020/12/13 03:35:37;;;;;;;67.15;37.65;;;10.80;99.90;;;;;;2123162;27;20027;-79
2020/12/13 03:36:38;;;;;;;66.82;37.65;;;10.70;99.90;;;;;;2123360;27;20027;-79
2020/12/13 03:37:38;;;;;;;64.47;36.55;;;10.80;99.90;;;;;;2113981;28;20031;-80
2020/12/13 03:38:39;;;;;;;63.78;38.17;;;10.70;99.90;;;;;;2105676;28;20467;-79
2020/12/13 03:39:39;;;;;;;65.00;37.83;;;10.70;99.90;;;;;;2105388;28;20088;-77
2020/12/13 03:40:40;;;;;;;66.57;38.90;;;10.70;99.90;;;;;;2105602;28;20027;-80
2020/12/13 03:41:41;;;;;;;63.95;39.42;;;10.70;99.90;;;;;;2105384;28;20052;-78
2020/12/13 03:42:43;;;;;;;62.10;37.03;;;10.70;99.90;;;;;;2105689;28;20523;-78
2020/12/13 03:43:44;;;;;;;63.13;37.67;;;10.70;99.90;;;;;;2105478;28;20077;-78
2020/12/13 03:44:44;;;;;;;62.95;39.00;;;10.70;99.90;;;;;;2114765;28;20020;-78
2020/12/13 03:45:45;;;;;;;70.03;39.40;;;10.70;99.90;;;;;;2123210;27;20027;-79
2020/12/13 03:46:45;;;;;;;70.40;39.45;;;10.80;99.90;;;;;;2123082;27;20022;-78
2020/12/13 03:47:46;;;;;;;64.43;39.00;;;10.80;99.90;;;;;;2122989;27;20043;-80
2020/12/13 03:48:47;;;;;;;65.60;39.38;;;10.70;99.90;;;;;;2123317;27;20055;-77
2020/12/13 03:49:47;;;;;;;69.75;40.80;;;10.80;99.90;;;;;;2113753;28;20088;-79
2020/12/13 03:50:48;;;;;;;70.35;38.63;;;10.70;99.90;;;;;;2114338;28;20027;-79
2020/12/13 03:51:48;;;;;;;69.13;39.28;;;10.80;99.90;;;;;;2113442;28;20023;-79
2020/12/13 03:52:49;;;;;;;65.75;39.30;;;10.80;99.90;;;;;;2114084;28;20106;-80
2020/12/13 03:53:50;;;;;;;69.15;40.70;;;10.80;99.90;;;;;;2113868;28;20356;-80
2020/12/13 03:54:50;;;;;;;65.13;38.70;;;10.70;99.90;;;;;;2114192;28;20019;-80
2020/12/13 03:55:51;;;;;;;62.95;38.85;;;10.80;99.90;;;;;;2122674;27;20416;-79
2020/12/13 03:56:51;;;;;;;67.25;38.55;;;10.80;99.90;;;;;;2123168;27;20402;-78
2020/12/13 03:57:53;;;;;;;68.32;39.67;;;10.80;99.90;;;;;;2122599;27;20019;-79
2020/12/13 03:58:53;;;;;;;66.28;40.83;;;10.80;99.90;;;;;;2113623;28;20016;-78
2020/12/13 03:59:54;;;;;;;66.97;40.20;;;10.80;99.90;;;;;;2113729;28;20027;-80
2020/12/13 04:00:55;;;;;;;68.90;40.58;;;10.70;99.90;;;;;;2123194;27;20026;-78
2020/12/13 04:01:55;;;;;;;69.43;39.72;;;10.80;99.90;;;;;;2122654;27;20050;-80
2020/12/13 04:02:57;;;;;;;64.82;40.60;;;10.80;99.90;;;;;;2113994;28;20542;-80
2020/12/13 04:03:57;;;;;;;63.88;39.22;;;10.80;99.90;;;;;;2114042;28;20211;-79
2020/12/13 04:04:58;;;;;;;66.70;38.95;;;10.80;99.90;;;;;;2123026;27;20415;-80
2020/12/13 04:05:58;;;;;;;65.78;40.00;;;10.80;99.90;;;;;;2113933;28;20224;-80
2020/12/13 04:06:59;;;;;;;64.20;38.65;;;10.80;99.90;;;;;;2105281;28;20024;-78
2020/12/13 04:08:00;;;;;;;73.93;42.03;;;10.80;99.90;;;;;;2113991;28;20097;-77
2020/12/13 04:09:00;;;;;;;71.68;39.08;;;10.80;99.90;;;;;;2122972;27;20029;-79
2020/12/13 04:10:01;;;;;;;67.38;40.38;;;10.80;99.90;;;;;;2113934;28;20537;-80
2020/12/13 04:11:02;;;;;;;66.40;40.70;;;10.80;99.90;;;;;;2113820;28;20493;-78
2020/12/13 04:12:02;;;;;;;64.60;39.55;;;10.80;99.90;;;;;;2122545;27;20485;-79
2020/12/13 04:13:03;;;;;;;61.50;38.30;;;10.80;99.90;;;;;;2114090;28;20023;-79
2020/12/13 04:14:03;;;;;;;69.63;40.63;;;10.80;99.90;;;;;;2105265;28;20024;-81
2020/12/13 04:15:04;;;;;;;59.53;38.85;;;10.80;99.90;;;;;;2112919;28;20015;-80
2020/12/13 04:16:04;;;;;;;66.38;41.53;;;10.80;99.90;;;;;;2123144;27;20456;-80
2020/12/13 04:17:05;;;;;;;66.75;39.17;;;10.80;99.90;;;;;;2122724;27;20370;-79
2020/12/13 04:18:05;;;;;;;67.40;40.35;;;10.80;99.90;;;;;;2122983;27;20455;-80
2020/12/13 04:19:06;;;;;;;65.45;39.90;;;10.80;99.90;;;;;;2113797;28;20011;-80
2020/12/13 04:20:08;;;;;;;64.88;38.25;;;10.80;99.90;;;;;;2113799;28;20352;-80
2020/12/13 04:21:08;;;;;;;64.65;38.88;;;10.80;99.90;;;;;;2122835;27;20276;-80
2020/12/13 04:22:09;;;;;;;65.25;38.08;;;10.80;99.90;;;;;;2122825;27;20023;-77
2020/12/13 04:23:09;;;;;;;61.08;37.95;;;10.80;99.90;;;;;;2113660;28;20012;-79
2020/12/13 04:24:10;;;;;;;59.25;37.17;;;10.80;99.90;;;;;;2113819;28;20027;-81
2020/12/13 04:25:10;;;;;;;60.58;39.10;;;10.80;99.90;;;;;;2113684;28;20051;-77
2020/12/13 04:26:11;;;;;;;61.75;38.35;;;10.80;99.90;;;;;;2113892;28;20523;-79
2020/12/13 04:27:12;;;;;;;59.50;38.47;;;10.80;99.90;;;;;;2122593;27;20027;-78
2020/12/13 04:28:12;;;;;;;60.53;37.90;;;10.80;99.90;;;;;;2122815;27;20114;-78
2020/12/13 04:29:13;;;;;;;61.63;40.22;;;10.80;99.90;;;;;;2122861;27;20161;-79
2020/12/13 04:30:13;;;;;;;58.78;37.97;;;10.80;99.90;;;;;;2113716;28;20019;-79
2020/12/13 04:31:14;;;;;;;65.95;38.65;;;10.80;99.90;;;;;;2105031;28;20031;-79
2020/12/13 04:32:14;;;;;;;62.53;37.88;;;10.80;99.90;;;;;;2113438;28;20050;-80
2020/12/13 04:33:15;;;;;;;65.70;38.70;;;10.80;99.90;;;;;;2122746;27;20094;-79
2020/12/13 04:34:15;;;;;;;59.38;36.58;;;10.80;99.90;;;;;;2113651;28;20479;-78
2020/12/13 04:35:16;;;;;;;60.80;39.20;;;10.80;99.90;;;;;;2113739;28;20050;-80
2020/12/13 04:36:17;;;;;;;62.58;37.75;;;10.80;99.90;;;;;;2113776;28;20196;-78
2020/12/13 04:37:18;;;;;;;61.83;38.50;;;10.80;99.90;;;;;;2113522;28;20437;-79
2020/12/13 04:38:19;;;;;;;66.00;38.55;;;10.80;99.90;;;;;;2113382;27;20057;-78
2020/12/13 04:39:20;;;;;;;60.85;36.83;;;10.80;99.90;;;;;;2122555;27;20107;-79
2020/12/13 04:40:20;;;;;;;59.47;37.20;;;10.80;99.90;;;;;;2122737;27;20023;-79
2020/12/13 04:41:21;;;;;;;57.35;37.67;;;10.70;99.90;;;;;;2122620;27;20121;-79
2020/12/13 04:42:23;;;;;;;59.70;36.17;;;10.80;99.90;;;;;;2122661;27;20019;-77
2020/12/13 04:43:23;;;;;;;59.88;37.63;;;10.70;99.90;;;;;;2113357;28;20015;-80
2020/12/13 04:44:24;;;;;;;56.65;37.47;;;10.80;99.90;;;;;;2113370;28;20042;-80
2020/12/13 04:45:25;;;;;;;57.95;37.47;;;10.70;99.90;;;;;;2113606;28;20451;-78
2020/12/13 04:46:29;;;;;;;56.10;36.53;;;10.80;99.90;;;;;;2113538;28;20032;-79
2020/12/13 04:47:32;;;;;;;60.92;38.00;;;10.70;99.90;;;;;;2122376;27;20075;-80
2020/12/13 04:48:33;;;;;;;52.13;35.15;;;10.80;99.90;;;;;;2122752;27;20019;-80
2020/12/13 04:49:35;;;;;;;56.83;36.95;;;10.70;99.90;;;;;;2122463;27;20083;-77
2020/12/13 04:50:38;;;;;;;58.83;36.97;;;10.80;99.90;;;;;;2122604;27;20391;-78
2020/12/13 04:51:42;;;;;;;54.60;35.80;;;10.80;99.90;;;;;;2122092;27;20031;-78
2020/12/13 04:52:43;;;;;;;60.83;37.53;;;10.80;99.90;;;;;;2122619;27;20054;-80
2020/12/13 04:53:49;;;;;;;56.53;36.35;;;10.70;99.90;;;;;;2122453;27;20023;-81
2020/12/13 04:54:51;;;;;;;51.25;35.22;;;10.80;99.90;;;;;;2122645;27;20045;-77
2020/12/13 04:55:57;;;;;;;59.60;36.90;;;10.80;99.90;;;;;;2122666;27;20042;-80
2020/12/13 04:56:58;;;;;;;58.20;37.75;;;10.80;99.90;;;;;;2122563;27;20019;-79
2020/12/13 04:57:59;;;;;;;54.38;35.08;;;10.80;99.90;;;;;;2122562;27;20031;-78
2020/12/13 04:59:04;;;;;;;54.05;34.88;;;10.80;99.90;;;;;;2122499;27;20019;-78
2020/12/13 05:00:05;;;;;;;56.05;35.67;;;10.80;99.90;;;;;;2122171;27;20068;-79
2020/12/13 05:01:05;;;;;;;58.40;36.67;;;10.80;99.90;;;;;;2122227;27;20068;-79
2020/12/13 05:02:07;;;;;;;58.83;37.83;;;10.80;99.90;;;;;;2122060;27;20019;-77
2020/12/13 05:03:15;;;;;;;57.85;36.60;;;10.80;99.90;;;;;;2122582;27;20019;-80
2020/12/13 05:04:16;;;;;;;57.15;36.53;;;10.80;99.90;;;;;;2122548;27;20390;-79
2020/12/13 05:05:19;;;;;;;56.22;36.13;;;10.80;99.90;;;;;;2122732;27;20023;-79
2020/12/13 05:06:21;;;;;;;55.30;36.22;;;10.80;99.90;;;;;;2113501;28;20123;-78
2020/12/13 05:07:22;;;;;;;54.08;37.60;;;10.80;99.90;;;;;;2113325;28;20028;-79
2020/12/13 05:08:23;;;;;;;57.75;38.10;;;10.80;99.90;;;;;;2122498;27;20131;-79
2020/12/13 05:09:23;;;;;;;54.97;34.95;;;10.80;99.90;;;;;;2122621;27;20075;-78
2020/12/13 05:10:24;;;;;;;56.33;35.35;;;10.80;99.90;;;;;;2113184;28;20388;-79
2020/12/13 05:11:25;;;;;;;58.20;37.20;;;10.80;99.90;;;;;;2104290;28;20452;-81